Time;durP1;ratioP1;P1;durP2;ratioP2;P2;SDS_P1;SDS_P2;PMS_P1;PMS_P2;Temp;Humidity;BMP_temperature;BMP_pressure;BME280_temperature;BME280_humidity;BME280_pressure;Samples;Min_cycle;Max_cycle;Signal;HPM_P1;HPM_P2
2022/10/24 00:00:59;;;;;;;11.85;7.70;;;;;;;;;;4967882;28;20034;-67
2022/10/24 00:03:25;;;;;;;11.93;7.28;;;;;;;;;;4964246;28;20030;-66
2022/10/24 00:05:50;;;;;;;12.93;7.55;;;;;;;;;;4965696;28;20516;-66
2022/10/24 00:08:16;;;;;;;12.10;7.70;;;;;;;;;;4960682;28;20341;-72
2022/10/24 00:10:44;;;;;;;12.25;6.60;;;;;;;;;;4963705;28;20385;-67
2022/10/24 00:13:11;;;;;;;15.18;7.47;;;;;;;;;;4966316;28;20034;-66
2022/10/24 00:15:36;;;;;;;12.25;7.30;;;;;;;;;;4964637;28;20034;-66
2022/10/24 00:18:03;;;;;;;10.35;7.45;;;;;;;;;;4965340;28;20023;-67
2022/10/24 00:20:28;;;;;;;12.45;6.85;;;;;;;;;;4966279;28;20042;-76
2022/10/24 00:22:54;;;;;;;13.73;6.90;;;;;;;;;;4969248;28;20030;-67
2022/10/24 00:25:19;;;;;;;10.48;6.90;;;;;;;;;;4965716;28;20034;-75
2022/10/24 00:27:45;;;;;;;11.23;5.40;;;;;;;;;;4965728;28;20074;-66
2022/10/24 00:30:11;;;;;;;9.73;6.60;;;;;;;;;;4969674;28;20460;-66
2022/10/24 00:32:36;;;;;;;9.35;6.22;;;;;;;;;;4988785;28;20029;-66
2022/10/24 00:35:03;;;;;;;10.48;6.13;;;;;;;;;;4976878;28;20073;-66
2022/10/24 00:37:28;;;;;;;12.50;6.43;;;;;;;;;;4987527;28;20027;-66
2022/10/24 00:39:54;;;;;;;15.60;6.40;;;;;;;;;;4983088;28;20034;-66
2022/10/24 00:42:19;;;;;;;9.32;6.07;;;;;;;;;;4980385;28;20037;-66
2022/10/24 00:44:45;;;;;;;8.18;5.68;;;;;;;;;;4989643;28;20040;-71
2022/10/24 00:47:20;;;;;;;11.38;5.70;;;;;;;;;;4977239;28;20058;-66
2022/10/24 00:49:46;;;;;;;9.60;5.82;;;;;;;;;;4984698;28;20098;-66
2022/10/24 00:52:15;;;;;;;12.23;5.97;;;;;;;;;;4985217;28;20109;-66
2022/10/24 00:54:41;;;;;;;9.48;5.68;;;;;;;;;;4977497;28;20117;-66
2022/10/24 00:57:13;;;;;;;8.40;5.57;;;;;;;;;;4989732;28;20123;-66
2022/10/24 00:59:41;;;;;;;9.32;5.35;;;;;;;;;;4983998;28;20034;-67
2022/10/24 01:02:08;;;;;;;10.43;5.85;;;;;;;;;;4985986;28;20027;-66
2022/10/24 01:04:33;;;;;;;8.88;5.22;;;;;;;;;;4991849;28;20109;-66
2022/10/24 01:07:03;;;;;;;9.70;5.47;;;;;;;;;;4979428;28;20165;-66
2022/10/24 01:09:52;;;;;;;11.38;5.30;;;;;;;;;;4983347;28;20033;-66
2022/10/24 01:12:23;;;;;;;11.60;5.18;;;;;;;;;;4984241;28;20500;-69
2022/10/24 01:14:51;;;;;;;9.23;5.00;;;;;;;;;;4993080;28;20042;-67
2022/10/24 01:17:50;;;;;;;10.80;5.22;;;;;;;;;;4981584;28;20026;-76
2022/10/24 01:20:40;;;;;;;11.52;5.32;;;;;;;;;;4982375;28;20109;-66
2022/10/24 01:23:13;;;;;;;10.50;5.75;;;;;;;;;;4993587;28;20457;-70
2022/10/24 01:25:47;;;;;;;10.65;6.20;;;;;;;;;;4984423;28;20037;-66
2022/10/24 01:28:17;;;;;;;8.65;5.45;;;;;;;;;;4984535;28;20081;-66
2022/10/24 01:30:48;;;;;;;9.43;5.82;;;;;;;;;;4992958;28;20353;-65
2022/10/24 01:33:17;;;;;;;10.35;5.38;;;;;;;;;;4964000;28;20058;-76
2022/10/24 01:35:59;;;;;;;9.68;5.28;;;;;;;;;;4984735;28;20022;-66
2022/10/24 01:38:31;;;;;;;8.90;5.57;;;;;;;;;;4982949;28;20366;-66
2022/10/24 01:41:04;;;;;;;10.18;5.90;;;;;;;;;;4992918;28;20031;-66
2022/10/24 01:43:55;;;;;;;7.25;5.20;;;;;;;;;;4982778;28;20022;-76
2022/10/24 01:46:27;;;;;;;7.75;5.68;;;;;;;;;;4983205;28;20476;-74
2022/10/24 01:49:01;;;;;;;12.50;5.55;;;;;;;;;;4992458;28;20526;-75
2022/10/24 01:51:29;;;;;;;10.00;6.10;;;;;;;;;;4982270;28;20538;-76
2022/10/24 01:53:55;;;;;;;10.25;5.68;;;;;;;;;;4986515;28;20031;-66
2022/10/24 01:56:24;;;;;;;9.02;5.60;;;;;;;;;;4989510;28;20070;-76
2022/10/24 01:58:50;;;;;;;8.77;5.00;;;;;;;;;;4979647;28;20143;-66
2022/10/24 02:01:21;;;;;;;8.40;5.22;;;;;;;;;;4991492;28;20027;-76
2022/10/24 02:03:54;;;;;;;11.10;5.95;;;;;;;;;;4984615;28;20492;-66
2022/10/24 02:06:24;;;;;;;9.82;6.05;;;;;;;;;;4983067;28;20027;-67
2022/10/24 02:08:55;;;;;;;9.50;5.40;;;;;;;;;;4992039;28;20073;-67
2022/10/24 02:11:20;;;;;;;10.45;6.07;;;;;;;;;;4981077;28;20077;-66
2022/10/24 02:14:04;;;;;;;10.70;5.95;;;;;;;;;;4995603;28;20530;-66
2022/10/24 02:16:30;;;;;;;12.60;5.88;;;;;;;;;;4995639;28;20022;-68
2022/10/24 02:18:57;;;;;;;10.05;5.68;;;;;;;;;;4977355;28;20030;-67
2022/10/24 02:21:48;;;;;;;11.85;5.47;;;;;;;;;;4990457;28;20030;-66
2022/10/24 02:24:28;;;;;;;11.60;6.32;;;;;;;;;;4995373;28;20157;-66
2022/10/24 02:27:02;;;;;;;8.02;5.80;;;;;;;;;;4995551;28;20093;-67
2022/10/24 02:29:46;;;;;;;15.18;6.60;;;;;;;;;;4989161;28;20027;-66
2022/10/24 02:32:17;;;;;;;12.10;6.63;;;;;;;;;;4975783;28;20039;-66
2022/10/24 02:34:44;;;;;;;8.43;5.93;;;;;;;;;;4991802;28;20027;-67
2022/10/24 02:37:11;;;;;;;10.25;6.13;;;;;;;;;;4982377;28;20097;-75
2022/10/24 02:39:39;;;;;;;8.13;5.63;;;;;;;;;;4984910;28;20027;-66
2022/10/24 02:42:07;;;;;;;11.45;6.00;;;;;;;;;;4989386;28;20054;-66
2022/10/24 02:44:35;;;;;;;8.88;5.85;;;;;;;;;;4994935;28;20026;-67
2022/10/24 02:47:04;;;;;;;8.52;5.90;;;;;;;;;;4956477;28;20063;-66
2022/10/24 02:49:29;;;;;;;12.32;6.07;;;;;;;;;;4956332;28;20106;-76
2022/10/24 02:51:55;;;;;;;12.20;6.28;;;;;;;;;;4977384;28;20109;-76
2022/10/24 02:54:20;;;;;;;13.27;6.43;;;;;;;;;;4994994;28;20022;-68
2022/10/24 02:56:51;;;;;;;11.18;6.22;;;;;;;;;;4995073;28;20030;-68
2022/10/24 02:59:16;;;;;;;9.32;6.55;;;;;;;;;;4956225;28;20097;-66
2022/10/24 03:01:42;;;;;;;10.05;6.72;;;;;;;;;;4956194;28;20032;-67
2022/10/24 03:04:08;;;;;;;9.38;6.43;;;;;;;;;;4978425;28;20026;-66
2022/10/24 03:06:33;;;;;;;10.13;6.22;;;;;;;;;;4979871;28;20059;-67
2022/10/24 03:08:59;;;;;;;11.07;6.13;;;;;;;;;;4991124;28;20498;-75
2022/10/24 03:11:24;;;;;;;13.15;7.07;;;;;;;;;;4980749;28;20029;-66
2022/10/24 03:13:50;;;;;;;10.80;6.38;;;;;;;;;;4994494;28;20053;-75
2022/10/24 03:16:15;;;;;;;10.10;7.05;;;;;;;;;;4982193;28;20022;-66
2022/10/24 03:18:41;;;;;;;9.95;6.03;;;;;;;;;;4975208;28;20376;-66
2022/10/24 03:21:07;;;;;;;12.57;7.15;;;;;;;;;;4986804;28;20028;-67
2022/10/24 03:23:32;;;;;;;8.43;6.35;;;;;;;;;;4994420;28;20034;-66
2022/10/24 03:25:58;;;;;;;10.32;6.90;;;;;;;;;;4994406;28;20034;-66
2022/10/24 03:28:24;;;;;;;11.90;7.10;;;;;;;;;;4980855;28;20037;-71
2022/10/24 03:30:49;;;;;;;12.60;6.78;;;;;;;;;;4974860;28;20034;-66
2022/10/24 03:33:15;;;;;;;10.90;6.90;;;;;;;;;;4977553;28;20027;-66
2022/10/24 03:35:41;;;;;;;13.45;6.75;;;;;;;;;;4988933;28;20033;-67
2022/10/24 03:38:07;;;;;;;10.52;6.47;;;;;;;;;;4982096;28;20027;-69
2022/10/24 03:40:36;;;;;;;11.35;6.07;;;;;;;;;;4983191;28;20030;-66
2022/10/24 03:43:02;;;;;;;14.70;6.93;;;;;;;;;;4988751;28;20022;-65
2022/10/24 03:45:27;;;;;;;11.38;6.65;;;;;;;;;;4983550;28;20404;-66
2022/10/24 03:47:53;;;;;;;9.82;6.55;;;;;;;;;;4974546;28;20027;-66
2022/10/24 03:50:19;;;;;;;10.45;7.05;;;;;;;;;;4993214;28;20436;-76
2022/10/24 03:52:44;;;;;;;9.02;6.80;;;;;;;;;;4974481;28;20027;-66
2022/10/24 03:55:11;;;;;;;12.88;7.07;;;;;;;;;;4991705;28;20468;-68
2022/10/24 03:57:36;;;;;;;9.45;6.97;;;;;;;;;;4993683;28;20026;-66
2022/10/24 04:00:04;;;;;;;14.10;8.00;;;;;;;;;;4990788;28;20026;-66
2022/10/24 04:02:30;;;;;;;13.90;7.45;;;;;;;;;;4974308;28;20027;-66
2022/10/24 04:04:55;;;;;;;12.75;7.95;;;;;;;;;;4982272;28;20165;-75
2022/10/24 04:07:21;;;;;;;14.70;7.55;;;;;;;;;;4982016;28;20045;-67
2022/10/24 04:09:46;;;;;;;12.48;7.88;;;;;;;;;;4989170;28;20029;-76
2022/10/24 04:12:12;;;;;;;11.43;7.45;;;;;;;;;;4976960;28;20034;-67
2022/10/24 04:14:37;;;;;;;11.52;7.43;;;;;;;;;;4992712;28;20088;-66
2022/10/24 04:17:03;;;;;;;14.48;7.90;;;;;;;;;;4990849;28;20464;-71
2022/10/24 04:19:28;;;;;;;11.18;7.13;;;;;;;;;;4973207;28;20026;-66
2022/10/24 04:21:54;;;;;;;12.00;8.05;;;;;;;;;;4991805;28;20034;-74
2022/10/24 04:24:19;;;;;;;12.38;8.10;;;;;;;;;;4992603;28;20117;-66
2022/10/24 04:26:45;;;;;;;15.23;8.48;;;;;;;;;;4992458;28;20101;-67
2022/10/24 04:29:10;;;;;;;11.85;7.32;;;;;;;;;;4990465;28;20487;-66
2022/10/24 04:31:36;;;;;;;15.85;8.32;;;;;;;;;;4973266;28;20077;-66
2022/10/24 04:34:01;;;;;;;17.27;9.10;;;;;;;;;;4986334;28;20030;-75
2022/10/24 04:36:27;;;;;;;17.08;10.65;;;;;;;;;;4976328;28;20481;-76
2022/10/24 04:38:52;;;;;;;19.63;10.68;;;;;;;;;;4987037;28;20015;-69
2022/10/24 04:41:18;;;;;;;20.20;10.07;;;;;;;;;;4979930;28;20062;-74
2022/10/24 04:43:43;;;;;;;20.23;11.07;;;;;;;;;;4992479;28;20037;-77
2022/10/24 04:46:08;;;;;;;23.27;11.75;;;;;;;;;;4992144;28;20085;-67
2022/10/24 04:48:34;;;;;;;28.73;13.40;;;;;;;;;;4976525;28;20029;-75
2022/10/24 04:51:00;;;;;;;26.30;12.93;;;;;;;;;;4983986;28;20054;-68
2022/10/24 04:53:25;;;;;;;41.13;14.43;;;;;;;;;;4983308;28;20026;-77
2022/10/24 04:55:51;;;;;;;29.58;13.68;;;;;;;;;;4978228;28;20031;-67
2022/10/24 04:58:16;;;;;;;31.40;13.55;;;;;;;;;;4978489;28;20053;-73
2022/10/24 05:00:45;;;;;;;40.40;14.68;;;;;;;;;;4992066;28;20033;-69
2022/10/24 05:03:11;;;;;;;32.60;14.43;;;;;;;;;;4984847;28;20052;-74
2022/10/24 05:05:37;;;;;;;29.77;14.32;;;;;;;;;;4983444;28;20041;-67
2022/10/24 05:08:03;;;;;;;26.58;14.23;;;;;;;;;;4977903;28;20129;-66
2022/10/24 05:10:29;;;;;;;31.00;14.82;;;;;;;;;;4988500;28;20030;-75
2022/10/24 05:12:54;;;;;;;31.48;15.48;;;;;;;;;;4972722;28;20035;-67
2022/10/24 05:15:20;;;;;;;26.48;14.63;;;;;;;;;;4960731;28;422176;-68
2022/10/24 05:17:46;;;;;;;34.08;15.35;;;;;;;;;;4993267;28;20113;-67
2022/10/24 05:20:11;;;;;;;33.25;15.38;;;;;;;;;;4992908;28;20030;-67
2022/10/24 05:22:37;;;;;;;27.80;15.15;;;;;;;;;;4992801;28;20042;-68
2022/10/24 05:25:03;;;;;;;26.17;14.55;;;;;;;;;;4992785;28;20040;-66
2022/10/24 05:27:29;;;;;;;27.90;15.52;;;;;;;;;;4989788;28;20356;-75
2022/10/24 05:29:54;;;;;;;26.10;14.95;;;;;;;;;;4973072;28;20035;-67
2022/10/24 05:32:21;;;;;;;24.27;14.32;;;;;;;;;;4975742;28;20035;-71
2022/10/24 05:34:47;;;;;;;24.30;14.50;;;;;;;;;;4986018;28;20023;-67
2022/10/24 05:37:12;;;;;;;22.13;13.75;;;;;;;;;;4982936;28;20511;-67
2022/10/24 05:39:38;;;;;;;22.58;13.88;;;;;;;;;;4979071;28;20030;-67
2022/10/24 05:42:04;;;;;;;24.85;13.90;;;;;;;;;;4989761;28;20034;-67
2022/10/24 05:44:30;;;;;;;24.45;13.60;;;;;;;;;;4993538;28;20033;-65
2022/10/24 05:46:55;;;;;;;22.00;12.70;;;;;;;;;;4980772;28;20031;-70
2022/10/24 05:49:21;;;;;;;19.95;12.45;;;;;;;;;;4986553;28;20030;-74
2022/10/24 05:51:46;;;;;;;22.67;12.00;;;;;;;;;;4982012;28;20142;-69
2022/10/24 05:54:12;;;;;;;20.55;10.65;;;;;;;;;;4992105;28;20031;-74
2022/10/24 05:56:37;;;;;;;19.20;11.02;;;;;;;;;;4977985;28;20022;-65
2022/10/24 05:59:03;;;;;;;18.92;11.32;;;;;;;;;;4996061;28;20085;-74
2022/10/24 06:01:29;;;;;;;20.58;11.60;;;;;;;;;;4995924;28;20069;-66
2022/10/24 06:03:55;;;;;;;17.42;10.65;;;;;;;;;;4987519;28;20362;-66
2022/10/24 06:06:20;;;;;;;17.40;11.30;;;;;;;;;;4976209;28;20027;-65
2022/10/24 06:08:46;;;;;;;20.23;11.25;;;;;;;;;;4977181;28;20078;-68
2022/10/24 06:11:12;;;;;;;17.90;10.48;;;;;;;;;;4995966;28;20032;-65
2022/10/24 06:13:38;;;;;;;18.67;11.18;;;;;;;;;;4995513;28;20050;-72
2022/10/24 06:16:08;;;;;;;18.85;11.50;;;;;;;;;;4988347;28;20487;-67
2022/10/24 06:18:34;;;;;;;15.68;10.77;;;;;;;;;;4983373;28;20029;-74
2022/10/24 06:21:01;;;;;;;23.23;13.45;;;;;;;;;;4995362;28;20053;-66
2022/10/24 06:23:26;;;;;;;19.77;11.10;;;;;;;;;;4980827;28;20030;-68
2022/10/24 06:25:52;;;;;;;17.52;11.15;;;;;;;;;;4993166;28;20038;-65
2022/10/24 06:28:17;;;;;;;22.02;12.20;;;;;;;;;;4980694;28;20019;-69
2022/10/24 06:30:43;;;;;;;21.52;12.50;;;;;;;;;;4976126;28;20540;-66
2022/10/24 06:33:09;;;;;;;18.88;12.23;;;;;;;;;;4981593;28;20031;-65
2022/10/24 06:35:35;;;;;;;19.02;11.82;;;;;;;;;;4986013;28;20051;-73
2022/10/24 06:38:00;;;;;;;18.40;12.50;;;;;;;;;;4988223;28;20037;-66
2022/10/24 06:40:26;;;;;;;19.75;12.02;;;;;;;;;;4978981;28;20030;-68
2022/10/24 06:42:51;;;;;;;20.23;11.30;;;;;;;;;;4995202;28;20018;-66
2022/10/24 06:45:19;;;;;;;21.20;12.65;;;;;;;;;;4986574;28;20034;-72
2022/10/24 06:47:45;;;;;;;19.17;12.88;;;;;;;;;;4975746;28;20031;-67
2022/10/24 06:50:10;;;;;;;20.17;12.77;;;;;;;;;;4975685;28;20523;-65
2022/10/24 06:52:36;;;;;;;19.60;13.13;;;;;;;;;;4988327;28;20498;-65
2022/10/24 06:55:02;;;;;;;18.95;11.82;;;;;;;;;;4995097;28;20519;-69
2022/10/24 06:57:27;;;;;;;21.13;12.57;;;;;;;;;;4980521;28;20038;-75
2022/10/24 06:59:53;;;;;;;19.42;12.13;;;;;;;;;;4965346;28;20074;-66
2022/10/24 07:02:18;;;;;;;20.15;12.13;;;;;;;;;;4973832;28;20027;-66
2022/10/24 07:04:44;;;;;;;28.20;11.95;;;;;;;;;;4976563;28;20035;-66
2022/10/24 07:07:18;;;;;;;21.40;11.38;;;;;;;;;;4991851;28;20034;-67
2022/10/24 07:09:44;;;;;;;18.05;10.82;;;;;;;;;;4974968;28;20030;-66
2022/10/24 07:12:10;;;;;;;20.65;11.80;;;;;;;;;;4974031;28;20117;-73
2022/10/24 07:14:36;;;;;;;17.15;11.48;;;;;;;;;;4973062;28;20129;-67
2022/10/24 07:17:03;;;;;;;18.42;10.18;;;;;;;;;;4973878;28;20192;-67
2022/10/24 07:19:28;;;;;;;19.00;10.93;;;;;;;;;;4974901;28;20030;-66
2022/10/24 07:21:54;;;;;;;19.65;10.07;;;;;;;;;;4992582;28;20041;-66
2022/10/24 07:24:21;;;;;;;18.50;9.65;;;;;;;;;;4993567;28;20074;-67
2022/10/24 07:26:47;;;;;;;20.38;9.90;;;;;;;;;;4991126;28;20026;-71
2022/10/24 07:29:12;;;;;;;15.45;9.52;;;;;;;;;;4974280;28;20034;-66
2022/10/24 07:31:38;;;;;;;16.00;9.98;;;;;;;;;;4977535;28;20026;-66
2022/10/24 07:34:05;;;;;;;14.35;9.43;;;;;;;;;;4994082;28;20396;-69
2022/10/24 07:36:31;;;;;;;17.15;9.18;;;;;;;;;;4989344;28;20019;-66
2022/10/24 07:38:58;;;;;;;11.80;8.63;;;;;;;;;;4968573;28;20027;-67
2022/10/24 07:41:25;;;;;;;12.18;8.38;;;;;;;;;;4974430;28;20062;-66
2022/10/24 07:43:51;;;;;;;11.25;7.55;;;;;;;;;;4989804;28;20097;-69
2022/10/24 07:46:17;;;;;;;11.63;7.85;;;;;;;;;;4993703;28;20026;-67
2022/10/24 07:48:45;;;;;;;10.85;7.82;;;;;;;;;;4977149;28;20023;-72
2022/10/24 07:51:13;;;;;;;12.27;8.02;;;;;;;;;;4987690;28;20436;-69
2022/10/24 07:53:39;;;;;;;13.55;7.50;;;;;;;;;;4981896;28;20380;-67
2022/10/24 07:56:08;;;;;;;9.57;6.40;;;;;;;;;;4980608;28;20555;-66
2022/10/24 07:58:34;;;;;;;13.68;6.88;;;;;;;;;;4974162;28;20030;-66
2022/10/24 08:01:09;;;;;;;10.23;6.60;;;;;;;;;;4991106;28;20029;-66
2022/10/24 08:03:35;;;;;;;11.57;6.65;;;;;;;;;;4984247;28;20034;-66
2022/10/24 08:06:08;;;;;;;10.18;5.90;;;;;;;;;;4985861;28;20121;-67
2022/10/24 08:08:34;;;;;;;11.88;6.38;;;;;;;;;;4976557;28;20082;-67
2022/10/24 08:11:00;;;;;;;11.38;5.63;;;;;;;;;;4989130;28;20085;-66
2022/10/24 08:13:26;;;;;;;10.80;5.97;;;;;;;;;;4973718;28;20037;-66
2022/10/24 08:15:51;;;;;;;10.85;5.72;;;;;;;;;;4976822;28;20121;-66
2022/10/24 08:18:17;;;;;;;7.97;5.57;;;;;;;;;;4982331;28;20484;-69
2022/10/24 08:20:42;;;;;;;11.23;6.35;;;;;;;;;;4974538;28;20031;-67
2022/10/24 08:23:08;;;;;;;9.63;5.00;;;;;;;;;;4993126;28;20027;-66
2022/10/24 08:25:33;;;;;;;8.38;5.32;;;;;;;;;;4993002;28;20037;-67
2022/10/24 08:28:00;;;;;;;9.75;5.88;;;;;;;;;;4986786;28;20101;-72
2022/10/24 08:30:25;;;;;;;9.18;5.68;;;;;;;;;;4972322;28;20030;-66
2022/10/24 08:32:51;;;;;;;8.95;5.40;;;;;;;;;;4972587;28;20035;-68
2022/10/24 08:35:18;;;;;;;10.05;5.15;;;;;;;;;;4983989;28;20027;-69
2022/10/24 08:37:44;;;;;;;7.97;5.13;;;;;;;;;;4987514;28;20422;-66
2022/10/24 08:40:18;;;;;;;6.38;4.57;;;;;;;;;;4981316;28;20130;-66
2022/10/24 08:42:45;;;;;;;10.30;5.43;;;;;;;;;;4973404;28;20033;-66
2022/10/24 08:45:26;;;;;;;7.20;5.07;;;;;;;;;;4973302;28;20046;-67
2022/10/24 08:47:57;;;;;;;9.30;4.78;;;;;;;;;;4984891;28;20487;-66
2022/10/24 08:50:27;;;;;;;8.27;4.22;;;;;;;;;;4977177;28;20027;-66
2022/10/24 08:53:26;;;;;;;18.02;12.52;;;;;;;;;;4961036;28;20037;-67
2022/10/24 08:55:54;;;;;;;9.20;4.68;;;;;;;;;;4981053;28;20497;-68
2022/10/24 08:58:42;;;;;;;6.32;3.75;;;;;;;;;;4973534;28;20424;-66
2022/10/24 09:01:15;;;;;;;9.18;4.43;;;;;;;;;;4970793;28;20411;-66
2022/10/24 09:03:47;;;;;;;8.00;3.90;;;;;;;;;;4974463;28;20043;-66
2022/10/24 09:06:22;;;;;;;7.72;4.03;;;;;;;;;;4987126;28;20030;-65
2022/10/24 09:08:54;;;;;;;5.60;3.97;;;;;;;;;;4983733;28;20030;-65
2022/10/24 09:11:41;;;;;;;5.72;3.60;;;;;;;;;;4978057;28;20033;-65
2022/10/24 09:14:16;;;;;;;9.45;5.22;;;;;;;;;;4958964;28;20039;-65
2022/10/24 09:16:45;;;;;;;9.27;3.90;;;;;;;;;;4971272;28;20081;-65
2022/10/24 09:19:15;;;;;;;7.82;4.13;;;;;;;;;;4973895;28;20110;-65
2022/10/24 09:21:42;;;;;;;8.75;3.75;;;;;;;;;;4993757;28;20042;-65
2022/10/24 09:24:33;;;;;;;7.07;3.80;;;;;;;;;;4996267;28;20046;-66
2022/10/24 09:27:03;;;;;;;8.25;4.07;;;;;;;;;;4982562;28;20093;-72
2022/10/24 09:29:31;;;;;;;9.45;3.92;;;;;;;;;;4974950;28;20029;-66
2022/10/24 09:31:57;;;;;;;6.18;3.53;;;;;;;;;;4976131;28;20118;-65
2022/10/24 09:34:22;;;;;;;10.20;3.70;;;;;;;;;;4976505;28;20105;-67
2022/10/24 09:36:48;;;;;;;11.63;3.38;;;;;;;;;;4976435;28;20023;-73
2022/10/24 09:39:30;;;;;;;6.40;3.45;;;;;;;;;;4986281;28;20073;-77
2022/10/24 09:41:57;;;;;;;8.20;3.60;;;;;;;;;;4980174;28;20027;-67
2022/10/24 09:44:31;;;;;;;9.73;3.80;;;;;;;;;;4976493;28;20038;-74
2022/10/24 09:46:57;;;;;;;10.38;4.88;;;;;;;;;;4991595;28;20499;-68
2022/10/24 09:49:30;;;;;;;9.38;3.75;;;;;;;;;;4995871;28;20069;-68
2022/10/24 09:52:07;;;;;;;9.50;3.70;;;;;;;;;;4965146;28;20197;-67
2022/10/24 09:54:34;;;;;;;8.63;4.38;;;;;;;;;;4986850;28;20035;-67
2022/10/24 09:57:15;;;;;;;6.95;3.40;;;;;;;;;;4980522;28;20037;-67
2022/10/24 10:00:09;;;;;;;7.43;3.40;;;;;;;;;;4993980;28;20030;-67
2022/10/24 10:02:36;;;;;;;11.52;3.60;;;;;;;;;;4991472;28;20046;-73
2022/10/24 10:05:01;;;;;;;12.27;4.07;;;;;;;;;;4975700;28;20476;-74
2022/10/24 10:07:34;;;;;;;14.32;3.10;;;;;;;;;;4976122;28;20135;-69
2022/10/24 10:10:05;;;;;;;5.07;2.63;;;;;;;;;;4988192;28;20293;-75
2022/10/24 10:12:35;;;;;;;10.40;3.10;;;;;;;;;;4995446;28;20040;-67
2022/10/24 10:15:17;;;;;;;8.55;3.42;;;;;;;;;;4995064;28;20149;-67
2022/10/24 10:17:50;;;;;;;7.13;2.90;;;;;;;;;;4967046;28;20123;-67
2022/10/24 10:20:37;;;;;;;7.85;3.17;;;;;;;;;;4980645;28;20037;-71
2022/10/24 10:23:27;;;;;;;9.45;2.90;;;;;;;;;;4983880;28;20058;-67
2022/10/24 10:26:13;;;;;;;13.93;3.47;;;;;;;;;;4993186;28;20081;-74
2022/10/24 10:28:55;;;;;;;9.23;2.90;;;;;;;;;;4956281;28;20039;-67
2022/10/24 10:31:42;;;;;;;9.13;3.20;;;;;;;;;;4960730;28;20046;-67
2022/10/24 10:34:16;;;;;;;11.35;3.28;;;;;;;;;;4986548;28;20030;-67
2022/10/24 10:37:22;;;;;;;6.70;2.95;;;;;;;;;;4988367;28;20031;-67
2022/10/24 10:40:14;;;;;;;8.43;3.30;;;;;;;;;;4947646;28;20032;-67
2022/10/24 10:42:50;;;;;;;6.93;2.92;;;;;;;;;;4934982;29;20039;-67
2022/10/24 10:45:40;;;;;;;7.13;2.78;;;;;;;;;;4935188;29;20449;-67
2022/10/24 10:48:23;;;;;;;;;;;;;;;;;;4945850;29;20035;-67
2022/10/24 10:51:18;;;;;;;15.18;3.15;;;;;;;;;;4948547;29;20372;-67
2022/10/24 10:54:14;;;;;;;10.00;2.58;;;;;;;;;;4940262;29;20035;-67
2022/10/24 10:57:23;;;;;;;8.18;2.90;;;;;;;;;;4940808;29;20044;-74
2022/10/24 11:00:22;;;;;;;6.70;3.13;;;;;;;;;;4893332;29;20055;-78
2022/10/24 11:03:15;;;;;;;7.68;2.60;;;;;;;;;;4896053;29;20406;-67
2022/10/24 11:05:51;;;;;;;8.32;2.53;;;;;;;;;;4893391;29;20024;-68
2022/10/24 11:08:17;;;;;;;10.27;2.95;;;;;;;;;;4884375;29;20040;-77
2022/10/24 11:10:52;;;;;;;7.43;2.90;;;;;;;;;;4889092;29;20040;-67
2022/10/24 11:13:35;;;;;;;5.90;2.78;;;;;;;;;;4880958;29;20161;-70
2022/10/24 11:16:05;;;;;;;6.65;2.85;;;;;;;;;;4894149;29;20032;-77
2022/10/24 11:18:35;;;;;;;7.18;2.63;;;;;;;;;;4927766;29;20043;-74
2022/10/24 11:21:12;;;;;;;9.43;3.33;;;;;;;;;;4915229;29;20172;-67
2022/10/24 11:23:58;;;;;;;10.40;3.30;;;;;;;;;;4925262;29;20438;-69
2022/10/24 11:26:39;;;;;;;13.02;3.00;;;;;;;;;;4918218;29;20029;-68
2022/10/24 11:29:33;;;;;;;10.18;3.58;;;;;;;;;;4924141;29;20040;-67
2022/10/24 11:32:06;;;;;;;11.90;2.90;;;;;;;;;;4915084;29;20031;-67
2022/10/24 11:34:41;;;;;;;11.07;2.90;;;;;;;;;;4927931;28;20070;-68
2022/10/24 11:37:14;;;;;;;12.00;2.85;;;;;;;;;;4974635;28;20464;-70
2022/10/24 11:39:49;;;;;;;10.07;2.72;;;;;;;;;;4974578;28;20031;-77
2022/10/24 11:42:24;;;;;;;6.97;2.90;;;;;;;;;;4973521;28;20022;-67
2022/10/24 11:45:04;;;;;;;10.18;3.00;;;;;;;;;;4976673;28;20034;-77
2022/10/24 11:47:40;;;;;;;12.40;3.70;;;;;;;;;;4984808;28;20023;-68
2022/10/24 11:50:11;;;;;;;9.70;2.67;;;;;;;;;;4981434;28;20050;-68
2022/10/24 11:52:50;;;;;;;13.75;3.17;;;;;;;;;;4993816;28;20085;-76
2022/10/24 11:55:23;;;;;;;9.18;3.13;;;;;;;;;;4977838;28;20018;-77
2022/10/24 11:57:53;;;;;;;18.38;4.18;;;;;;;;;;4974117;28;20389;-74
2022/10/24 12:00:24;;;;;;;11.63;3.50;;;;;;;;;;4973172;28;20050;-67
2022/10/24 12:03:07;;;;;;;;;;;;;;;;;;4972865;28;20037;-76
2022/10/24 12:06:01;;;;;;;11.27;2.80;;;;;;;;;;4987168;28;19960;-68
2022/10/24 12:08:46;;;;;;;10.60;3.17;;;;;;;;;;4992925;28;20042;-67
2022/10/24 12:11:30;;;;;;;10.35;2.53;;;;;;;;;;4992823;28;20025;-68
2022/10/24 12:14:32;;;;;;;10.43;3.42;;;;;;;;;;4992896;28;20050;-68
2022/10/24 12:17:33;;;;;;;12.65;3.17;;;;;;;;;;4993320;28;20022;-77
2022/10/24 12:20:01;;;;;;;8.48;2.65;;;;;;;;;;4952052;29;20481;-68
2022/10/24 12:22:34;;;;;;;9.15;2.92;;;;;;;;;;4952323;29;20489;-74
2022/10/24 12:25:04;;;;;;;12.32;3.00;;;;;;;;;;4944184;29;20050;-71
2022/10/24 12:27:38;;;;;;;8.68;2.47;;;;;;;;;;4933402;29;20572;-76
2022/10/24 12:30:16;;;;;;;8.18;2.60;;;;;;;;;;4933244;29;20448;-69
2022/10/24 12:32:52;;;;;;;5.82;2.40;;;;;;;;;;4936059;29;20032;-72
2022/10/24 12:35:43;;;;;;;9.05;2.97;;;;;;;;;;4933338;29;20115;-73
2022/10/24 12:38:16;;;;;;;13.35;4.28;;;;;;;;;;4924168;29;20036;-69
2022/10/24 12:40:44;;;;;;;8.93;2.60;;;;;;;;;;4933014;29;20555;-68
2022/10/24 12:43:41;;;;;;;4.20;2.42;;;;;;;;;;4933177;29;20075;-69
2022/10/24 12:46:15;;;;;;;7.53;2.83;;;;;;;;;;4932999;29;20422;-67
2022/10/24 12:48:56;;;;;;;9.93;3.20;;;;;;;;;;4932969;29;20027;-68
2022/10/24 12:51:26;;;;;;;;;;;;;;;;;;4933242;29;20537;-68
2022/10/24 12:54:01;;;;;;;;;;;;;;;;;;4932994;29;20471;-68
2022/10/24 12:56:29;;;;;;;8.90;2.40;;;;;;;;;;4954224;28;20301;-68
2022/10/24 12:58:56;;;;;;;8.63;1.90;;;;;;;;;;4986443;28;20019;-72
2022/10/24 13:01:32;;;;;;;8.80;2.47;;;;;;;;;;4977319;28;20065;-69
2022/10/24 13:04:27;;;;;;;8.35;2.83;;;;;;;;;;4989506;28;20057;-71
2022/10/24 13:07:07;;;;;;;10.90;2.70;;;;;;;;;;4965197;28;20018;-67
2022/10/24 13:09:33;;;;;;;;;;;;;;;;;;4987708;28;20027;-69
2022/10/24 13:12:13;;;;;;;9.63;2.47;;;;;;;;;;4989356;28;19914;-77
2022/10/24 13:14:44;;;;;;;9.63;3.00;;;;;;;;;;4979950;28;20042;-70
2022/10/24 13:17:42;;;;;;;8.70;2.30;;;;;;;;;;4990591;28;20031;-67
2022/10/24 13:20:16;;;;;;;16.85;3.08;;;;;;;;;;4990384;28;20034;-76
2022/10/24 13:22:43;;;;;;;14.73;3.53;;;;;;;;;;4993549;28;20507;-68
2022/10/24 13:25:41;;;;;;;14.63;2.92;;;;;;;;;;4982400;28;20088;-68
2022/10/24 13:28:19;;;;;;;11.63;2.95;;;;;;;;;;4941818;29;20048;-68
2022/10/24 13:30:45;;;;;;;12.40;2.95;;;;;;;;;;4936159;29;20485;-68
2022/10/24 13:33:32;;;;;;;12.95;3.00;;;;;;;;;;4936089;29;20036;-68
2022/10/24 13:36:25;;;;;;;9.13;2.53;;;;;;;;;;4951703;29;20468;-74
2022/10/24 13:38:56;;;;;;;12.35;3.15;;;;;;;;;;4935667;29;20047;-73
2022/10/24 13:41:31;;;;;;;7.97;2.63;;;;;;;;;;4948242;29;20122;-78
2022/10/24 13:44:09;;;;;;;15.68;2.80;;;;;;;;;;4943218;29;20525;-73
2022/10/24 13:46:42;;;;;;;11.30;2.67;;;;;;;;;;4936108;29;20103;-68
2022/10/24 13:49:18;;;;;;;10.88;2.90;;;;;;;;;;4948245;29;20027;-67
2022/10/24 13:51:48;;;;;;;10.98;2.30;;;;;;;;;;4950076;29;20039;-69
2022/10/24 13:54:26;;;;;;;7.65;2.53;;;;;;;;;;4938732;29;20424;-67
2022/10/24 13:56:51;;;;;;;13.57;2.67;;;;;;;;;;4946523;29;20051;-67
2022/10/24 13:59:37;;;;;;;9.40;2.25;;;;;;;;;;4935414;29;20032;-67
2022/10/24 14:02:06;;;;;;;10.32;2.50;;;;;;;;;;4935131;29;20051;-67
2022/10/24 14:04:34;;;;;;;15.05;3.05;;;;;;;;;;4964369;28;20039;-74
2022/10/24 14:07:07;;;;;;;12.40;2.80;;;;;;;;;;4985534;28;20034;-71
2022/10/24 14:09:41;;;;;;;12.15;2.78;;;;;;;;;;4989810;28;20018;-67
2022/10/24 14:12:17;;;;;;;11.63;2.60;;;;;;;;;;4979472;28;20372;-67
2022/10/24 14:14:48;;;;;;;6.95;2.25;;;;;;;;;;4988163;28;20057;-68
2022/10/24 14:17:35;;;;;;;8.57;2.63;;;;;;;;;;4987466;28;20460;-68
2022/10/24 14:20:17;;;;;;;20.60;3.00;;;;;;;;;;4981183;28;20435;-67
2022/10/24 14:22:43;;;;;;;8.52;2.13;;;;;;;;;;4987930;28;20030;-67
2022/10/24 14:25:29;;;;;;;11.30;2.75;;;;;;;;;;4986280;28;20085;-68
2022/10/24 14:27:56;;;;;;;11.90;3.22;;;;;;;;;;4978537;28;20027;-74
2022/10/24 14:30:24;;;;;;;11.65;2.60;;;;;;;;;;4976182;28;20122;-67
2022/10/24 14:33:14;;;;;;;9.80;3.47;;;;;;;;;;4975776;28;20018;-71
2022/10/24 14:35:40;;;;;;;6.20;2.28;;;;;;;;;;4967545;28;20050;-70
2022/10/24 14:38:06;;;;;;;10.00;2.53;;;;;;;;;;4985893;28;20496;-71
2022/10/24 14:40:32;;;;;;;12.25;2.63;;;;;;;;;;4988138;28;20049;-69
2022/10/24 14:42:58;;;;;;;10.02;2.63;;;;;;;;;;4978687;28;20035;-69
2022/10/24 14:45:26;;;;;;;9.00;2.50;;;;;;;;;;4975471;28;20034;-74
2022/10/24 14:47:54;;;;;;;14.68;2.38;;;;;;;;;;4975769;28;20023;-67
2022/10/24 14:50:41;;;;;;;9.80;2.22;;;;;;;;;;4975326;28;20118;-73
2022/10/24 14:53:21;;;;;;;12.02;2.80;;;;;;;;;;4975745;28;20469;-67
2022/10/24 14:55:57;;;;;;;11.88;2.90;;;;;;;;;;4982756;28;20030;-67
2022/10/24 14:58:25;;;;;;;9.68;2.53;;;;;;;;;;4995123;28;20033;-71